Girouxville, Canada
Current Conditions -  °F | °C
As of 4:00 AM on Thursday 27 Nov 2014 (Local Time) from CYPE Reporting Station
Light Snow Light Snow  
Wind Chill: -19°   Ceiling: 1000
Heat Index:   Visibility: 15mi
Dew Point: -6°   Wind: 14mph
Humidity: 78%   Direction: 360°N
Pressure: 30.26"   Gusts: 21mph
Location:  55.75°N, 117.33°W
Report Text: CYPE 271100Z 36012G18KT 15SM -SN OVC010 M18/M21 A3026 RMK SC8 SLP299
Loading
Personal Weather Stations






























Interactive Weather Map New forecast layout! Learn more

10-Day Weather Forecast

Advertisements
Track Severe Weather on mobile